createdAt,value
2023-03-07T00:00:35.562Z,28790.98
2023-03-07T00:01:38.261Z,29029.01
2023-03-07T00:02:41.334Z,29820.88
2023-03-07T00:03:44.664Z,29095.74
2023-03-07T00:05:59.427Z,31692.11
2023-03-07T00:07:08.534Z,30737.45
2023-03-07T00:08:11.834Z,32872.30
2023-03-07T00:09:22.497Z,30484.37
2023-03-07T00:10:25.880Z,31720.01
2023-03-07T00:11:29.129Z,33476.48
2023-03-07T00:12:31.816Z,27754.40
2023-03-07T00:13:34.103Z,34574.43
2023-03-07T00:14:37.017Z,29563.88
2023-03-07T00:15:40.119Z,28111.84
2023-03-07T00:16:43.840Z,30510.28
2023-03-07T00:17:46.986Z,30689.62
2023-03-07T00:18:50.677Z,30133.68
2023-03-07T00:19:53.996Z,30130.69
2023-03-07T00:20:57.268Z,31017.44
2023-03-07T00:21:59.862Z,31912.37
2023-03-07T00:23:03.226Z,30640.80
2023-03-07T00:24:06.820Z,27084.39
2023-03-07T00:25:10.249Z,31717.02
2023-03-07T00:26:13.508Z,39172.98
2023-03-07T00:27:17.129Z,35337.49
2023-03-07T00:28:20.473Z,32766.62
2023-03-07T00:29:23.740Z,29306.89
2023-03-07T00:30:27.242Z,33852.40
2023-03-07T00:31:30.365Z,34152.57
2023-03-07T00:32:33.876Z,30529.21
2023-03-07T00:33:37.803Z,31496.77
2023-03-07T00:34:41.247Z,27789.25
2023-03-07T00:35:44.694Z,31594.44
2023-03-07T00:36:48.409Z,29359.68
2023-03-07T00:37:51.739Z,29793.98
2023-03-07T00:39:02.713Z,29022.04
2023-03-07T00:40:06.014Z,27689.68
2023-03-07T00:41:10.460Z,30136.67
2023-03-07T00:42:13.847Z,26462.29
2023-03-07T00:43:17.260Z,33530.32
2023-03-07T00:44:27.317Z,55596.09
2023-03-07T00:45:30.852Z,39441.60
2023-03-07T00:46:34.016Z,36519.77
2023-03-07T00:47:36.969Z,38738.64
2023-03-07T00:48:40.040Z,35577.91
2023-03-07T00:49:42.825Z,53976.06
2023-03-07T00:50:45.930Z,48669.50
2023-03-07T00:51:49.279Z,49428.29
2023-03-07T00:52:54.085Z,43198.14
2023-03-07T00:53:57.430Z,46221.95
2023-03-07T00:55:01.220Z,43783.92
2023-03-07T00:56:04.707Z,35447.22
2023-03-07T00:57:08.168Z,43401.05
2023-03-07T00:58:15.186Z,26805.68
2023-03-07T00:59:22.058Z,32813.48
2023-03-07T01:00:25.257Z,46192.95
2023-03-07T01:01:29.159Z,48140.04
2023-03-07T01:02:32.686Z,49035.86
2023-03-07T01:03:35.885Z,47221.40
2023-03-07T01:04:38.990Z,44258.81
2023-03-07T01:05:42.208Z,48758.59
2023-03-07T01:06:57.738Z,52633.22
2023-03-07T01:08:03.737Z,55597.09
2023-03-07T01:09:07.044Z,40352.43
2023-03-07T01:10:10.062Z,45160.75
2023-03-07T01:11:13.540Z,52697.35
2023-03-07T01:12:16.790Z,33839.44
2023-03-07T01:13:21.492Z,34552.49
2023-03-07T01:14:24.892Z,30970.61
2023-03-07T01:15:32.219Z,35822.33
2023-03-07T01:16:35.825Z,34076.77
2023-03-07T01:17:40.341Z,33605.11
2023-03-07T01:18:43.820Z,36117.66
2023-03-07T01:19:47.384Z,34818.79
2023-03-07T01:20:50.573Z,38951.32
2023-03-07T01:21:53.613Z,41467.29
2023-03-07T01:22:58.611Z,43743.93
2023-03-07T01:24:02.103Z,37927.01
2023-03-07T01:25:05.397Z,38931.34
2023-03-07T01:26:08.974Z,53208.38
2023-03-07T01:27:12.322Z,48011.94
2023-03-07T01:28:18.536Z,41695.09
2023-03-07T01:29:24.044Z,41137.59
2023-03-07T01:30:27.500Z,38583.89
2023-03-07T01:31:31.256Z,45589.80
2023-03-07T01:32:37.750Z,45155.75
2023-03-07T01:33:41.235Z,39645.32
2023-03-07T01:34:47.078Z,45382.77
2023-03-07T01:35:50.482Z,43265.11
2023-03-07T01:36:54.784Z,42086.79
2023-03-07T01:37:58.317Z,44694.76
2023-03-07T01:39:01.710Z,44959.75
2023-03-07T01:40:04.903Z,48869.70
2023-03-07T01:41:08.196Z,51264.80
2023-03-07T01:42:13.060Z,45802.84
2023-03-07T01:43:16.281Z,43305.09
2023-03-07T01:44:19.321Z,45915.87
2023-03-07T01:45:22.418Z,51050.46
2023-03-07T01:46:25.722Z,51299.86
2023-03-07T01:47:29.318Z,53921.94
2023-03-07T01:48:34.833Z,56167.66
2023-03-07T01:49:38.216Z,56648.05
2023-03-07T01:50:50.003Z,52544.05
2023-03-07T01:51:53.221Z,54576.47
2023-03-07T01:53:03.595Z,53191.35
2023-03-07T01:54:06.930Z,52242.48
2023-03-07T01:55:10.357Z,54543.39
2023-03-07T01:56:13.633Z,59040.84
2023-03-07T01:57:16.679Z,57964.16
2023-03-07T01:58:20.347Z,59180.34
2023-03-07T01:59:23.887Z,58277.20
2023-03-07T02:00:27.236Z,59608.90
2023-03-07T02:01:30.702Z,59274.68
2023-03-07T02:02:34.745Z,59639.02
2023-03-07T02:03:39.317Z,56948.96
2023-03-07T02:04:42.636Z,56806.53
2023-03-07T02:05:45.585Z,59871.88
2023-03-07T02:06:48.891Z,59578.79
2023-03-07T02:07:52.536Z,58544.11
2023-03-07T02:08:55.885Z,57334.14
2023-03-07T02:10:02.352Z,58492.93
2023-03-07T02:11:17.515Z,58016.33
2023-03-07T02:12:23.039Z,59748.42
2023-03-07T02:13:25.340Z,61988.41
2023-03-07T02:14:28.427Z,61462.19
2023-03-07T02:15:39.212Z,66016.73
2023-03-07T02:16:45.548Z,54334.89
2023-03-07T02:17:48.804Z,52977.91
2023-03-07T02:18:51.556Z,47585.63
2023-03-07T02:19:55.271Z,55252.18
2023-03-07T02:20:58.404Z,57915.00
2023-03-07T02:22:02.046Z,46482.05
2023-03-07T02:23:05.225Z,37345.09
2023-03-07T02:24:08.222Z,38564.92
2023-03-07T02:25:11.294Z,28925.43
2023-03-07T02:26:14.539Z,27621.98
2023-03-07T02:27:18.057Z,29171.44
2023-03-07T02:28:21.425Z,33772.63
2023-03-07T02:29:24.237Z,29855.74
2023-03-07T02:30:27.039Z,29781.03
2023-03-07T02:31:30.404Z,35604.84
2023-03-07T02:32:33.540Z,31633.30
2023-03-07T02:33:36.619Z,42650.42
2023-03-07T02:34:40.007Z,52569.10
2023-03-07T02:35:43.244Z,45641.81
2023-03-07T02:36:46.454Z,49045.87
2023-03-07T02:37:49.636Z,49500.37
2023-03-07T02:38:52.202Z,56468.53
2023-03-07T02:39:58.825Z,62641.27
2023-03-07T02:41:03.288Z,63334.42
2023-03-07T02:42:08.351Z,63929.21
2023-03-07T02:43:11.670Z,62294.74
2023-03-07T02:44:15.301Z,65355.29
2023-03-07T02:45:18.715Z,64912.04
2023-03-07T02:46:22.098Z,66329.41
2023-03-07T02:47:25.171Z,64337.19
2023-03-07T02:48:35.495Z,35095.09
2023-03-07T02:49:38.753Z,30651.76
2023-03-07T02:50:41.672Z,32381.84
2023-03-07T02:51:44.751Z,30418.61
2023-03-07T02:52:48.248Z,30597.95
2023-03-07T02:53:51.606Z,32430.68
2023-03-07T02:54:57.054Z,47915.86
2023-03-07T02:56:00.466Z,62309.80
2023-03-07T02:57:03.893Z,59504.52
2023-03-07T02:58:06.998Z,62576.98
2023-03-07T02:59:09.980Z,62947.64
2023-03-07T03:00:15.340Z,65237.68
2023-03-07T03:01:18.388Z,65502.04
2023-03-07T03:02:21.395Z,56728.29
2023-03-07T03:03:24.787Z,37569.66
2023-03-07T03:04:28.170Z,35830.31
2023-03-07T03:05:34.210Z,35119.03
2023-03-07T03:06:36.834Z,34587.39
2023-03-07T03:07:40.222Z,38028.83
2023-03-07T03:08:43.199Z,56443.46
2023-03-07T03:09:46.574Z,61290.48
2023-03-07T03:10:49.714Z,64331.16
2023-03-07T03:11:53.260Z,72738.00
2023-03-07T03:12:56.781Z,74013.09
2023-03-07T03:13:59.921Z,75629.20
2023-03-07T03:15:04.582Z,74482.54
2023-03-07T03:16:07.854Z,74267.95
2023-03-07T03:17:10.992Z,73572.91
2023-03-07T03:18:14.204Z,73363.41
2023-03-07T03:19:22.620Z,75927.50
2023-03-07T03:20:25.459Z,78194.74
2023-03-07T03:21:28.053Z,59178.34
2023-03-07T03:22:30.704Z,41346.39
2023-03-07T03:23:33.809Z,32837.40
2023-03-07T03:24:36.993Z,32300.10
2023-03-07T03:25:40.310Z,31155.95
2023-03-07T03:26:42.635Z,63868.93
2023-03-07T03:27:46.715Z,89772.68
2023-03-07T03:28:50.143Z,29951.38
2023-03-07T03:29:53.823Z,26404.55
2023-03-07T03:30:57.287Z,31064.28
2023-03-07T03:32:00.451Z,29343.75
2023-03-07T03:33:03.373Z,71815.67
2023-03-07T03:34:06.851Z,91786.69
2023-03-07T03:35:10.198Z,75718.89
2023-03-07T03:36:13.575Z,75629.20
2023-03-07T03:37:16.362Z,77771.23
2023-03-07T03:38:19.040Z,35908.13
2023-03-07T03:39:22.231Z,29367.65
2023-03-07T03:40:25.703Z,91227.20
2023-03-07T03:41:28.697Z,87143.14
2023-03-07T03:42:32.753Z,46700.14
2023-03-07T03:43:36.004Z,63326.38
2023-03-07T03:44:39.211Z,89852.58
2023-03-07T03:45:42.329Z,29997.20
2023-03-07T03:46:45.103Z,22847.04
2023-03-07T03:47:48.664Z,22438.37
2023-03-07T03:48:51.997Z,32203.41
2023-03-07T03:49:55.296Z,30650.76
2023-03-07T03:53:23.214Z,23568.03
2023-03-07T03:54:26.580Z,27974.44
2023-03-07T03:55:30.004Z,24563.71
2023-03-07T03:56:33.264Z,25990.54
2023-03-07T03:57:35.989Z,34693.12
2023-03-07T03:59:54.485Z,58850.17
2023-03-07T04:00:57.084Z,29135.58
2023-03-07T04:02:00.769Z,22330.99
2023-03-07T04:03:06.199Z,26983.86
2023-03-07T04:04:09.851Z,31165.92
2023-03-07T04:05:13.251Z,30358.84
2023-03-07T04:06:16.369Z,27574.19
2023-03-07T04:07:19.497Z,23762.96
2023-03-07T04:08:25.887Z,24492.09
2023-03-07T04:09:29.077Z,26651.39
2023-03-07T04:10:32.314Z,24910.92
2023-03-07T04:11:42.656Z,25468.11
2023-03-07T04:12:45.962Z,24085.23
2023-03-07T04:13:48.998Z,25153.68
2023-03-07T04:14:55.786Z,23579.96
2023-03-07T04:15:58.624Z,28871.65
2023-03-07T04:17:05.052Z,28370.74
2023-03-07T04:18:08.002Z,25442.23
2023-03-07T04:19:10.802Z,25201.44
2023-03-07T04:20:13.942Z,25264.13
2023-03-07T04:21:16.923Z,29821.87
2023-03-07T04:22:21.239Z,34709.07
2023-03-07T04:23:24.350Z,32737.71
2023-03-07T04:24:27.611Z,35709.59
2023-03-07T04:25:30.495Z,31787.78
2023-03-07T04:26:33.784Z,36130.63
2023-03-07T04:27:36.973Z,38505.02
2023-03-07T04:28:39.251Z,34085.75
2023-03-07T04:29:42.180Z,29175.42
2023-03-07T04:30:45.337Z,29000.13
2023-03-07T04:31:47.984Z,28989.17
2023-03-07T04:32:50.979Z,34759.95
2023-03-07T04:33:56.587Z,36104.69
2023-03-07T04:35:01.877Z,40865.86
2023-03-07T04:36:05.213Z,38746.63
2023-03-07T04:37:08.483Z,36981.81
2023-03-07T04:38:11.644Z,39732.20
2023-03-07T04:39:14.301Z,41282.45
2023-03-07T04:40:16.951Z,38946.32
2023-03-07T04:41:19.299Z,36721.35
2023-03-07T04:42:21.461Z,32605.12
2023-03-07T04:43:23.671Z,32590.17
2023-03-07T04:45:33.200Z,29920.49
2023-03-07T04:46:35.402Z,27054.53
2023-03-07T04:47:37.691Z,32043.93
2023-03-07T04:48:40.236Z,32217.36
2023-03-07T04:50:58.650Z,41339.40
2023-03-07T04:52:01.058Z,30805.20
2023-03-07T04:53:03.749Z,33473.49
2023-03-07T04:54:06.408Z,33623.06
2023-03-07T04:55:08.975Z,31013.46
2023-03-07T04:56:11.428Z,31462.89
2023-03-07T04:57:13.596Z,29496.14
2023-03-07T04:58:15.782Z,38139.64
2023-03-07T04:59:19.830Z,32785.56
2023-03-07T05:00:22.602Z,46848.21
2023-03-07T05:01:25.119Z,74877.48
2023-03-07T05:02:27.749Z,72187.19
2023-03-07T05:03:30.198Z,101334.25
2023-03-07T05:04:32.969Z,80519.77
2023-03-07T05:05:37.495Z,101074.63
2023-03-07T05:06:39.102Z,103411.87
2023-03-07T05:07:41.286Z,100685.22
2023-03-07T05:08:43.481Z,105360.59
2023-03-07T05:09:46.139Z,101723.73
2023-03-07T05:10:48.637Z,105490.55
2023-03-07T05:11:53.501Z,107700.30
2023-03-07T05:12:54.773Z,97905.69
2023-03-07T05:13:56.924Z,86322.58
2023-03-07T05:14:59.574Z,54991.51
2023-03-07T05:16:02.154Z,46155.93
2023-03-07T05:17:04.891Z,41421.32
2023-03-07T05:18:07.363Z,32054.89
2023-03-07T05:20:26.062Z,58332.39
2023-03-07T05:21:28.298Z,38274.40
2023-03-07T05:22:30.898Z,45434.78
2023-03-07T05:23:33.617Z,78771.59
2023-03-07T05:24:36.083Z,73623.27
2023-03-07T05:25:38.535Z,104191.25
2023-03-07T05:26:41.055Z,102243.08
2023-03-07T05:27:43.486Z,98347.52
2023-03-07T05:28:45.915Z,103541.75
2023-03-07T05:29:51.047Z,106790.25
2023-03-07T05:30:53.900Z,105100.71
2023-03-07T05:31:56.174Z,101074.63
2023-03-07T05:32:58.610Z,92762.19
2023-03-07T05:34:01.122Z,87880.97
2023-03-07T05:35:03.536Z,69199.88
2023-03-07T05:36:05.782Z,89460.20
2023-03-07T05:37:08.226Z,97157.91
2023-03-07T05:38:10.419Z,83472.12
2023-03-07T05:39:12.614Z,78214.91
2023-03-07T05:40:14.859Z,82932.97
2023-03-07T05:41:17.130Z,85337.52
2023-03-07T05:42:19.679Z,88780.71
2023-03-07T05:43:22.083Z,86351.88
2023-03-07T05:44:24.517Z,81129.24
2023-03-07T05:45:26.735Z,73733.06
2023-03-07T05:46:29.274Z,54509.31
2023-03-07T05:47:31.537Z,53518.04
2023-03-07T05:48:33.709Z,46135.93
2023-03-07T05:49:38.443Z,71948.56
2023-03-07T05:50:40.928Z,46053.90
2023-03-07T05:51:44.463Z,57796.61
2023-03-07T05:52:46.866Z,76166.36
2023-03-07T05:53:49.148Z,85241.55
2023-03-07T05:54:51.622Z,69859.95
2023-03-07T05:55:54.132Z,79487.72
2023-03-07T05:56:56.826Z,64428.64
2023-03-07T05:57:59.248Z,55805.66
2023-03-07T05:59:01.838Z,60949.09
2023-03-07T06:00:04.320Z,46572.08
2023-03-07T06:01:06.502Z,35342.48
2023-03-07T06:02:13.979Z,33088.64
2023-03-07T06:03:16.526Z,25527.81
2023-03-07T06:04:19.003Z,23922.11
2023-03-07T06:05:22.524Z,25992.53
2023-03-07T06:06:25.595Z,26241.33
2023-03-07T06:07:28.972Z,27114.26
2023-03-07T06:08:31.190Z,58753.83
2023-03-07T06:09:33.397Z,53835.74
2023-03-07T06:10:35.605Z,60339.67
2023-03-07T06:11:37.810Z,75089.08
2023-03-07T06:12:40.232Z,38858.46
2023-03-07T06:13:42.432Z,38211.51
2023-03-07T06:14:44.806Z,64226.65
2023-03-07T06:15:52.260Z,88172.10
2023-03-07T06:16:54.907Z,93107.31
2023-03-07T06:17:57.121Z,102632.64
2023-03-07T06:18:59.465Z,105100.71
2023-03-07T06:20:01.679Z,100685.22
2023-03-07T06:21:04.172Z,102632.64
2023-03-07T06:22:06.629Z,100944.82
2023-03-07T06:23:09.198Z,106010.38
2023-03-07T06:24:11.404Z,102762.50
2023-03-07T06:25:18.741Z,102502.78
2023-03-07T06:26:21.214Z,102762.50
2023-03-07T06:27:23.387Z,105620.50
2023-03-07T06:28:27.300Z,105360.59
2023-03-07T06:29:29.588Z,103801.54
2023-03-07T06:31:39.554Z,106010.38
2023-03-07T06:32:41.855Z,105750.45
2023-03-07T06:33:44.283Z,108350.46
2023-03-07T06:34:47.635Z,108480.50
2023-03-07T06:35:50.080Z,110171.45
2023-03-07T06:38:05.061Z,111472.66
2023-03-07T06:39:07.303Z,113555.46
2023-03-07T06:40:09.702Z,112644.11
2023-03-07T06:41:12.159Z,112253.59
2023-03-07T06:42:14.493Z,113555.46
2023-03-07T06:43:16.754Z,114076.33
2023-03-07T06:44:19.273Z,115509.05
2023-03-07T06:45:21.697Z,116421.05
2023-03-07T06:46:23.961Z,116942.28
2023-03-07T06:47:26.390Z,116943.30
2023-03-07T06:48:28.670Z,116943.30
2023-03-07T06:49:31.119Z,116943.30
2023-03-07T06:50:35.742Z,116943.30
2023-03-07T06:51:38.043Z,116943.30
2023-03-07T06:52:41.824Z,116943.30
2023-03-07T06:53:44.323Z,116943.30
2023-03-07T06:54:46.880Z,116943.30
2023-03-07T06:55:49.419Z,116943.30
2023-03-07T06:56:51.864Z,116943.30
2023-03-07T06:57:54.260Z,116943.30
2023-03-07T06:58:56.688Z,116943.30
2023-03-07T06:59:59.416Z,116943.30
2023-03-07T07:01:01.761Z,116943.30
2023-03-07T07:02:04.419Z,116943.30
2023-03-07T07:03:07.181Z,116943.30
2023-03-07T07:05:25.692Z,116943.30
2023-03-07T07:06:28.256Z,116943.30
2023-03-07T07:07:30.613Z,116943.30
2023-03-07T07:08:33.096Z,116943.30
2023-03-07T07:09:35.360Z,116943.30
2023-03-07T07:10:37.852Z,116943.30
2023-03-07T07:11:42.974Z,116943.30
2023-03-07T07:12:45.281Z,116943.30
2023-03-07T07:13:47.472Z,116943.30
2023-03-07T07:14:49.882Z,116943.30
2023-03-07T07:15:52.381Z,116943.30
2023-03-07T07:16:54.845Z,116943.30
2023-03-07T07:17:57.051Z,116943.30
2023-03-07T07:18:59.257Z,116943.30
2023-03-07T07:20:01.479Z,116943.30
2023-03-07T07:21:04.051Z,116943.30
2023-03-07T07:22:06.421Z,116943.30
2023-03-07T07:23:08.830Z,116943.30
2023-03-07T07:24:11.044Z,116943.30
2023-03-07T07:25:13.512Z,116943.30
2023-03-07T07:26:16.180Z,116943.30
2023-03-07T07:27:18.428Z,116943.30
2023-03-07T07:28:20.678Z,116943.30
2023-03-07T07:29:22.969Z,116943.30
2023-03-07T07:30:25.640Z,116943.30
2023-03-07T07:31:27.960Z,116943.30
2023-03-07T07:32:46.949Z,116943.30
2023-03-07T07:33:49.214Z,116943.30
2023-03-07T07:34:51.639Z,116943.30
2023-03-07T07:35:54.137Z,116943.30
2023-03-07T07:36:56.833Z,116943.30
2023-03-07T07:37:59.359Z,116943.30
2023-03-07T07:39:04.197Z,116943.30
2023-03-07T07:40:06.622Z,116943.30
2023-03-07T07:41:08.899Z,116943.30
2023-03-07T07:42:11.880Z,116943.30
2023-03-07T07:43:14.368Z,116943.30
2023-03-07T07:44:16.980Z,116943.30
2023-03-07T07:45:19.239Z,116943.30
2023-03-07T07:46:21.779Z,116943.30
2023-03-07T07:47:24.226Z,116943.30
2023-03-07T07:48:26.535Z,116943.30
2023-03-07T07:49:28.816Z,116943.30
2023-03-07T07:50:31.235Z,116943.30
2023-03-07T07:51:33.561Z,116943.30
2023-03-07T07:52:35.806Z,116943.30
2023-03-07T07:53:37.983Z,116943.30
2023-03-07T07:54:40.487Z,116943.30
2023-03-07T07:55:42.946Z,116943.30
2023-03-07T07:56:45.126Z,116943.30
2023-03-07T07:57:47.592Z,116943.30
2023-03-07T07:58:49.793Z,116943.30
2023-03-07T07:59:52.284Z,116943.30
2023-03-07T08:00:54.710Z,116943.30
2023-03-07T08:01:56.974Z,116943.30
2023-03-07T08:02:59.671Z,116943.30
2023-03-07T08:04:01.917Z,116943.30
2023-03-07T08:05:04.384Z,116943.30
2023-03-07T08:07:22.324Z,116943.30
2023-03-07T08:08:24.759Z,116943.30
2023-03-07T08:09:29.614Z,116943.30
2023-03-07T08:10:31.942Z,116943.30
2023-03-07T08:11:34.231Z,116943.30
2023-03-07T08:12:36.550Z,116943.30
2023-03-07T08:13:39.025Z,116943.30
2023-03-07T08:14:41.204Z,116943.30
2023-03-07T08:15:43.703Z,116943.30
2023-03-07T08:16:46.162Z,116943.30
2023-03-07T08:17:48.853Z,116943.30
2023-03-07T08:18:51.309Z,116943.30
2023-03-07T08:19:53.490Z,116943.30
2023-03-07T08:20:55.677Z,116943.30
2023-03-07T08:21:57.901Z,116943.30
2023-03-07T08:23:00.380Z,116943.30
2023-03-07T08:24:02.887Z,116943.30
2023-03-07T08:25:05.402Z,116943.30
2023-03-07T08:26:08.804Z,116943.30
2023-03-07T08:27:11.223Z,116943.30
2023-03-07T08:28:13.635Z,116943.30
2023-03-07T08:29:19.403Z,116943.30
2023-03-07T08:30:21.847Z,116943.30
2023-03-07T08:31:24.151Z,116943.30
2023-03-07T08:32:26.473Z,116943.30
2023-03-07T08:33:29.217Z,116943.30
2023-03-07T08:34:31.855Z,116943.30
2023-03-07T08:35:34.401Z,116943.30
2023-03-07T08:36:36.831Z,116943.30
2023-03-07T08:37:39.088Z,116943.30
2023-03-07T08:38:50.703Z,116943.30
2023-03-07T08:39:54.571Z,116943.30
2023-03-07T08:40:57.041Z,116943.30
2023-03-07T08:41:59.570Z,116943.30
2023-03-07T08:43:01.760Z,116943.30
2023-03-07T08:44:05.104Z,116943.30
2023-03-07T08:45:07.780Z,116943.30
2023-03-07T08:46:10.056Z,116943.30
2023-03-07T08:47:12.487Z,116943.30
2023-03-07T08:48:14.676Z,116943.30
2023-03-07T08:49:16.888Z,116943.30
2023-03-07T08:50:19.391Z,116943.30
2023-03-07T08:51:21.841Z,116943.30
2023-03-07T08:52:24.118Z,116943.30
2023-03-07T08:53:26.566Z,116943.30
2023-03-07T08:54:28.796Z,116943.30
2023-03-07T08:55:31.057Z,116943.30
2023-03-07T08:57:48.992Z,116943.30
2023-03-07T08:58:51.174Z,116943.30
2023-03-07T08:59:53.355Z,116943.30
2023-03-07T09:00:55.952Z,116943.30
2023-03-07T09:01:58.437Z,116943.30
2023-03-07T09:03:00.667Z,116943.30
2023-03-07T09:04:02.859Z,116943.30
2023-03-07T09:05:05.528Z,116943.30
2023-03-07T09:06:07.824Z,116943.30
2023-03-07T09:07:10.216Z,116943.30
2023-03-07T09:08:12.454Z,116943.30
2023-03-07T09:09:14.833Z,116943.30
2023-03-07T09:10:17.127Z,116943.30
2023-03-07T09:11:19.618Z,116943.30
2023-03-07T09:12:21.838Z,116943.30
2023-03-07T09:13:23.987Z,116943.30
2023-03-07T09:14:26.191Z,116943.30
2023-03-07T09:15:28.398Z,116943.30
2023-03-07T09:16:30.998Z,116943.30
2023-03-07T09:17:33.530Z,116943.30
2023-03-07T09:18:35.762Z,116943.30
2023-03-07T09:19:38.010Z,116943.30
2023-03-07T09:20:40.348Z,116943.30
2023-03-07T09:22:50.445Z,116943.30
2023-03-07T09:25:08.360Z,116943.30
2023-03-07T09:28:42.595Z,116943.30
2023-03-07T09:29:44.785Z,116943.30
2023-03-07T09:30:46.964Z,116943.30
2023-03-07T09:31:52.223Z,116943.30
2023-03-07T09:32:54.672Z,116943.30
2023-03-07T09:33:57.115Z,116943.30
2023-03-07T09:34:59.352Z,116943.30
2023-03-07T09:36:01.607Z,116943.30
2023-03-07T09:37:03.900Z,116943.30
2023-03-07T09:38:06.405Z,116943.30
2023-03-07T09:39:08.596Z,116943.30
2023-03-07T09:40:10.859Z,116943.30
2023-03-07T09:41:13.071Z,116943.30
2023-03-07T09:42:16.882Z,116943.30
2023-03-07T09:43:19.203Z,116943.30
2023-03-07T09:44:21.605Z,116943.30
2023-03-07T09:45:23.907Z,116943.30
2023-03-07T09:46:27.804Z,116943.30
2023-03-07T09:47:30.033Z,116943.30
2023-03-07T09:48:32.787Z,116943.30
2023-03-07T09:49:35.188Z,116943.30
2023-03-07T09:50:37.467Z,116943.30
2023-03-07T09:51:39.723Z,116943.30
2023-03-07T09:52:42.186Z,116943.30
2023-03-07T09:53:45.030Z,116943.30
2023-03-07T09:54:48.928Z,116943.30
2023-03-07T09:55:51.128Z,116943.30
2023-03-07T09:56:53.311Z,116943.30
2023-03-07T09:57:55.603Z,116943.30
2023-03-07T09:58:58.019Z,116943.30
2023-03-07T10:00:00.487Z,116943.30
2023-03-07T10:01:02.713Z,116943.30
2023-03-07T10:02:04.912Z,116943.30
2023-03-07T10:03:07.306Z,116943.30
2023-03-07T10:04:09.887Z,116943.30
2023-03-07T10:05:12.288Z,116943.30
2023-03-07T10:06:14.798Z,116943.30
2023-03-07T10:07:22.111Z,116943.30
2023-03-07T10:08:24.307Z,116943.30
2023-03-07T10:09:26.902Z,116943.30
2023-03-07T10:10:29.086Z,116943.30
2023-03-07T10:11:31.743Z,116943.30
2023-03-07T10:12:34.052Z,116943.30
2023-03-07T10:13:36.354Z,116943.30
2023-03-07T10:14:38.600Z,116943.30
2023-03-07T10:15:41.142Z,116943.30
2023-03-07T10:16:43.465Z,116943.30
2023-03-07T10:17:45.965Z,116943.30
2023-03-07T10:18:48.357Z,116943.30
2023-03-07T10:19:50.881Z,116943.30
2023-03-07T10:20:53.283Z,116943.30
2023-03-07T10:21:56.070Z,116943.30
2023-03-07T10:22:58.256Z,116943.30
2023-03-07T10:24:00.782Z,116943.30
2023-03-07T10:25:03.018Z,116943.30
2023-03-07T10:26:05.256Z,116943.30
2023-03-07T10:27:07.470Z,116943.30
2023-03-07T10:28:09.876Z,116943.30
2023-03-07T10:29:12.117Z,116943.30
2023-03-07T10:30:14.531Z,116943.30
2023-03-07T10:31:16.876Z,116943.30
2023-03-07T10:32:19.124Z,116943.30
2023-03-07T10:33:26.097Z,116943.30
2023-03-07T10:34:30.152Z,116943.30
2023-03-07T10:35:32.201Z,116943.30
2023-03-07T10:36:34.640Z,116943.30
2023-03-07T10:37:36.982Z,116943.30
2023-03-07T10:38:40.476Z,116943.30
2023-03-07T10:39:42.900Z,116943.30
2023-03-07T10:40:48.848Z,116943.30
2023-03-07T10:41:51.578Z,116943.30
2023-03-07T10:42:53.789Z,116943.30
2023-03-07T10:43:55.986Z,116943.30
2023-03-07T10:44:58.281Z,116943.30
2023-03-07T10:46:00.752Z,116943.30
2023-03-07T10:47:03.247Z,116943.30
2023-03-07T10:48:05.708Z,116943.30
2023-03-07T10:49:10.669Z,116943.30
2023-03-07T10:50:13.158Z,116943.30
2023-03-07T10:51:15.801Z,116943.30
2023-03-07T10:52:17.993Z,116943.30
2023-03-07T10:53:20.507Z,116943.30
2023-03-07T10:54:22.697Z,116943.30
2023-03-07T10:55:25.160Z,116943.30
2023-03-07T10:56:27.452Z,116943.30
2023-03-07T10:57:29.944Z,116943.30
2023-03-07T10:58:33.626Z,116943.30
2023-03-07T10:59:35.866Z,116943.30
2023-03-07T11:00:38.398Z,116943.30
2023-03-07T11:01:40.863Z,116943.30
2023-03-07T11:02:43.328Z,116943.30
2023-03-07T11:03:53.273Z,116943.30
2023-03-07T11:04:49.471Z,116943.30
2023-03-07T11:05:52.213Z,116943.30
2023-03-07T11:06:54.667Z,116943.30
2023-03-07T11:07:58.876Z,116943.30
2023-03-07T11:09:02.116Z,116943.30
2023-03-07T11:10:05.237Z,116943.30
2023-03-07T11:11:07.537Z,116943.30
2023-03-07T11:12:10.031Z,116943.30
2023-03-07T11:13:12.292Z,116943.30
2023-03-07T11:14:16.145Z,116943.30
2023-03-07T11:15:18.651Z,116943.30
2023-03-07T11:17:36.963Z,116943.30
2023-03-07T11:18:39.465Z,116943.30
2023-03-07T11:19:41.657Z,116943.30
2023-03-07T11:20:44.159Z,116943.30
2023-03-07T11:21:46.720Z,116943.30
2023-03-07T11:22:49.481Z,116943.30
2023-03-07T11:23:53.201Z,116943.30
2023-03-07T11:25:04.894Z,116943.30
2023-03-07T11:26:07.674Z,116943.30
2023-03-07T11:27:10.125Z,116943.30
2023-03-07T11:28:12.789Z,116943.30
2023-03-07T11:29:16.384Z,116943.30
2023-03-07T11:30:18.951Z,116943.30
2023-03-07T11:31:21.693Z,116943.30
2023-03-07T11:32:24.362Z,116943.30
2023-03-07T11:33:27.285Z,116943.30
2023-03-07T11:34:30.044Z,116943.30
2023-03-07T11:35:32.780Z,116943.30
2023-03-07T11:36:35.602Z,116943.30
2023-03-07T11:37:38.497Z,116943.30
2023-03-07T11:38:41.337Z,116943.30
2023-03-07T11:39:44.004Z,116943.30
2023-03-07T11:40:46.795Z,116943.30
2023-03-07T11:41:49.460Z,116943.30
2023-03-07T11:42:52.418Z,116943.30
2023-03-07T11:43:55.293Z,116943.30
2023-03-07T11:44:58.174Z,116943.30
2023-03-07T11:46:01.066Z,116943.30
2023-03-07T11:47:04.035Z,116943.30
2023-03-07T11:48:06.807Z,116943.30
2023-03-07T11:49:09.778Z,116943.30
2023-03-07T11:50:12.768Z,116943.30
2023-03-07T11:51:15.421Z,116943.30
2023-03-07T11:52:18.191Z,116943.30
2023-03-07T11:53:21.169Z,116943.30
2023-03-07T11:54:24.050Z,116943.30
2023-03-07T11:55:26.944Z,116943.30
2023-03-07T11:56:29.913Z,116943.30
2023-03-07T11:57:32.667Z,116943.30
2023-03-07T11:58:35.440Z,116943.30
2023-03-07T11:59:38.320Z,116943.30
2023-03-07T12:00:41.086Z,116943.30
2023-03-07T12:01:43.972Z,116943.30
2023-03-07T12:02:46.963Z,116943.30
2023-03-07T12:03:49.617Z,116943.30
2023-03-07T12:04:52.175Z,116943.30
2023-03-07T12:05:54.892Z,116943.30
2023-03-07T12:06:57.517Z,116943.30
2023-03-07T12:08:00.124Z,116943.30
2023-03-07T12:09:03.071Z,116943.30
2023-03-07T12:10:07.773Z,116943.30
2023-03-07T12:11:10.552Z,116943.30
2023-03-07T12:12:13.321Z,116943.30
2023-03-07T12:13:16.299Z,116943.30
2023-03-07T12:14:19.071Z,116943.30
2023-03-07T12:15:21.752Z,116943.30
2023-03-07T12:16:24.634Z,116943.30
2023-03-07T12:17:27.593Z,116943.30
2023-03-07T12:18:30.516Z,116943.30
2023-03-07T12:19:33.342Z,116943.30
2023-03-07T12:20:36.441Z,116943.30
2023-03-07T12:21:39.201Z,116943.30
2023-03-07T12:22:42.081Z,116943.30
2023-03-07T12:23:44.863Z,116943.30
2023-03-07T12:24:47.621Z,116943.30
2023-03-07T12:25:50.511Z,116943.30
2023-03-07T12:26:53.376Z,116943.30
2023-03-07T12:27:56.254Z,116943.30
2023-03-07T12:28:59.121Z,116943.30
2023-03-07T12:30:01.999Z,116943.30
2023-03-07T12:31:04.985Z,116943.30